Weather at Nanjing Lukou Airport

Public forecast

Using degrees Celsius for public forecast. Weather courtesy of forecast.io.

Current aviation weather report (METAR) for Nanjing Lukou Airport

Retrieved 2021/04/20 16:00 UTC (29 minutes ago):

ZSNJ 201600Z 11006MPS CAVOK 18/13 Q1014 NOSIG

Aviation forecast (TAF) for Nanjing Lukou Airport

Retrieved 2021/04/20 12:03 UTC (4 hours ago):

TAF ZSNJ 200902Z 2012/2112 10005MPS 3000 HZ BKN030 TX23/2106Z TN16/2021Z